EHWO

Woensdrecht Air Base Airport

Bergen Op Zoom, The Netherlands
METAR EHWO 150055Z AUTO 22006KT 9999 OVC057 18/15 Q1018 BLU
Observed Flight Rules
Aug-15 @ 00:55 UTC (12 minutes ago) Visual Flight Rules
Wind Visibility Clouds
220° at 6 knots 10,000+ meters
  • Overcast at 5,700' AGL
Temperatures Readings
Current 18°C / 64°F
Dewpoint 15°C / 59°F
Humidity 83%
Altimeter 30.06" Hg
Pressure 1018 hPa
Elevation 17
METAR EHWO 150055Z AUTO 22006KT 9999 OVC057 18/15 Q1018 BLU
Observed Flight Rules
Aug-15 @ 00:55 UTC
(12 minutes ago)
VFR
Wind Visibility
220° at 6 knots 10,000+ meters
Clouds
  • Overcast at 5,700' AGL
Temperature Dewpoint
18°C / 64°F 15°C / 59°F
Humidity Altimeter Pressure
83% 30.06" Hg 1018 hPa